createdAt,value
2022-10-17T00:02:01.377Z,12.40
2022-10-17T00:04:28.004Z,12.40
2022-10-17T00:06:54.689Z,12.50
2022-10-17T00:09:21.275Z,12.50
2022-10-17T00:11:47.813Z,12.50
2022-10-17T00:14:14.479Z,12.60
2022-10-17T00:16:41.017Z,12.60
2022-10-17T00:19:07.897Z,12.70
2022-10-17T00:21:34.551Z,12.60
2022-10-17T00:24:01.400Z,12.60
2022-10-17T00:26:31.273Z,12.70
2022-10-17T00:28:58.020Z,12.70
2022-10-17T00:31:25.167Z,12.70
2022-10-17T00:33:52.754Z,12.70
2022-10-17T00:36:25.236Z,12.70
2022-10-17T00:38:55.293Z,12.70
2022-10-17T00:41:25.290Z,12.80
2022-10-17T00:43:58.801Z,12.70
2022-10-17T00:46:29.310Z,12.80
2022-10-17T00:48:58.647Z,12.80
2022-10-17T00:51:34.610Z,12.80
2022-10-17T00:54:02.607Z,12.70
2022-10-17T00:56:30.325Z,12.80
2022-10-17T00:58:57.345Z,12.80
2022-10-17T01:01:23.997Z,12.80
2022-10-17T01:03:50.725Z,12.80
2022-10-17T01:06:17.387Z,12.80
2022-10-17T01:08:44.281Z,12.80
2022-10-17T01:11:38.649Z,12.80
2022-10-17T01:14:43.578Z,12.80
2022-10-17T01:17:23.750Z,12.90
2022-10-17T01:19:56.183Z,12.90
2022-10-17T01:22:25.770Z,12.90
2022-10-17T01:25:41.826Z,12.90
2022-10-17T01:28:33.684Z,12.80
2022-10-17T01:31:09.420Z,12.90
2022-10-17T01:33:54.572Z,12.80
2022-10-17T01:36:26.950Z,12.90
2022-10-17T01:39:00.734Z,12.90
2022-10-17T01:41:32.189Z,12.90
2022-10-17T01:44:10.225Z,13.00
2022-10-17T01:46:38.805Z,13.00
2022-10-17T01:49:08.456Z,13.00
2022-10-17T01:51:46.894Z,13.00
2022-10-17T01:54:20.518Z,13.10
2022-10-17T01:56:51.581Z,13.00
2022-10-17T01:59:24.317Z,13.10
2022-10-17T02:01:54.054Z,13.10
2022-10-17T02:04:20.903Z,13.10
2022-10-17T02:06:47.544Z,13.00
2022-10-17T02:09:27.658Z,13.10
2022-10-17T02:12:07.745Z,13.00
2022-10-17T02:15:11.139Z,13.00
2022-10-17T02:17:43.209Z,13.00
2022-10-17T02:20:36.238Z,13.00
2022-10-17T02:23:33.638Z,13.00
2022-10-17T02:26:25.245Z,13.10
2022-10-17T02:29:14.732Z,13.10
2022-10-17T02:31:49.788Z,13.00
2022-10-17T02:34:50.715Z,13.00
2022-10-17T02:37:21.197Z,12.90
2022-10-17T02:39:49.746Z,12.90
2022-10-17T02:42:17.840Z,12.90
2022-10-17T02:44:45.740Z,12.90
2022-10-17T02:47:25.257Z,12.80
2022-10-17T02:49:54.725Z,12.80
2022-10-17T02:52:36.861Z,12.70
2022-10-17T02:55:10.680Z,12.70
2022-10-17T02:57:44.590Z,12.70
2022-10-17T03:00:14.235Z,12.70
2022-10-17T03:02:42.493Z,12.60
2022-10-17T03:05:10.404Z,12.60
2022-10-17T03:07:37.029Z,12.60
2022-10-17T03:10:04.138Z,12.60
2022-10-17T03:12:31.091Z,12.60
2022-10-17T03:14:57.809Z,12.60
2022-10-17T03:17:24.485Z,12.70
2022-10-17T03:19:51.077Z,12.60
2022-10-17T03:22:17.675Z,12.60
2022-10-17T03:24:44.270Z,12.70
2022-10-17T03:27:11.322Z,12.60
2022-10-17T03:29:37.897Z,12.70
2022-10-17T03:32:04.629Z,12.70
2022-10-17T03:34:31.332Z,12.70
2022-10-17T03:36:57.952Z,12.70
2022-10-17T03:39:24.870Z,12.70
2022-10-17T03:41:51.469Z,12.70
2022-10-17T03:44:18.164Z,12.70
2022-10-17T03:46:44.758Z,12.70
2022-10-17T03:49:11.420Z,12.70
2022-10-17T03:51:38.036Z,12.70
2022-10-17T03:54:04.722Z,12.70
2022-10-17T03:56:31.416Z,12.70
2022-10-17T03:58:57.995Z,12.70
2022-10-17T04:01:24.630Z,12.70
2022-10-17T04:03:53.180Z,12.70
2022-10-17T04:06:21.007Z,12.70
2022-10-17T04:08:48.279Z,12.70
2022-10-17T04:11:18.148Z,12.60
2022-10-17T04:13:45.708Z,12.60
2022-10-17T04:16:15.174Z,12.60
2022-10-17T04:18:42.388Z,12.60
2022-10-17T04:21:09.592Z,12.50
2022-10-17T04:23:36.613Z,12.50
2022-10-17T04:26:04.518Z,12.50
2022-10-17T04:28:32.321Z,12.50
2022-10-17T04:31:05.569Z,12.50
2022-10-17T04:33:33.356Z,12.50
2022-10-17T04:36:02.051Z,12.50
2022-10-17T04:38:30.007Z,12.40
2022-10-17T04:41:04.928Z,12.50
2022-10-17T04:43:33.237Z,12.50
2022-10-17T04:46:01.517Z,12.50
2022-10-17T04:48:29.333Z,12.40
2022-10-17T04:51:04.979Z,12.40
2022-10-17T04:53:33.567Z,12.40
2022-10-17T04:56:00.133Z,12.50
2022-10-17T04:58:28.808Z,12.50
2022-10-17T05:00:55.485Z,12.50
2022-10-17T05:03:22.357Z,12.50
2022-10-17T05:05:49.191Z,12.50
2022-10-17T05:08:15.754Z,12.50
2022-10-17T05:10:46.062Z,12.50
2022-10-17T05:13:12.819Z,12.40
2022-10-17T05:15:39.465Z,12.50
2022-10-17T05:18:06.911Z,12.40
2022-10-17T05:20:33.614Z,12.50
2022-10-17T05:23:00.950Z,12.40
2022-10-17T05:25:27.636Z,12.50
2022-10-17T05:27:54.581Z,12.50
2022-10-17T05:30:21.132Z,12.40
2022-10-17T05:32:47.723Z,12.40
2022-10-17T05:35:14.330Z,12.40
2022-10-17T05:37:40.905Z,12.40
2022-10-17T05:40:08.078Z,12.40
2022-10-17T05:42:34.789Z,12.40
2022-10-17T05:45:01.377Z,12.40
2022-10-17T05:47:28.339Z,12.40
2022-10-17T05:49:55.306Z,12.40
2022-10-17T05:52:22.002Z,12.40
2022-10-17T05:54:48.533Z,12.50
2022-10-17T05:57:15.272Z,12.50
2022-10-17T05:59:41.802Z,12.50
2022-10-17T06:02:10.699Z,12.50
2022-10-17T06:04:37.853Z,12.50
2022-10-17T06:07:05.553Z,12.60
2022-10-17T06:09:32.095Z,12.70
2022-10-17T06:11:58.663Z,12.70
2022-10-17T06:14:25.230Z,12.80
2022-10-17T06:16:51.825Z,12.80
2022-10-17T06:19:18.508Z,12.90
2022-10-17T06:21:45.058Z,13.00
2022-10-17T06:24:11.611Z,13.10
2022-10-17T06:26:38.414Z,13.20
2022-10-17T06:29:05.016Z,13.30
2022-10-17T06:31:31.562Z,13.50
2022-10-17T06:33:58.168Z,13.60
2022-10-17T06:36:24.727Z,13.70
2022-10-17T06:38:51.305Z,13.80
2022-10-17T06:41:19.265Z,13.90
2022-10-17T06:43:46.698Z,14.00
2022-10-17T06:46:15.674Z,14.00
2022-10-17T06:48:42.576Z,14.10
2022-10-17T06:51:11.411Z,14.20
2022-10-17T06:53:39.952Z,14.30
2022-10-17T06:56:08.186Z,14.30
2022-10-17T06:58:39.052Z,14.30
2022-10-17T07:03:40.942Z,14.30
2022-10-17T07:06:08.201Z,14.40
2022-10-17T07:08:34.740Z,14.40
2022-10-17T07:11:12.553Z,14.50
2022-10-17T07:13:40.038Z,14.60
2022-10-17T07:16:07.252Z,14.70
2022-10-17T07:18:34.001Z,14.80
2022-10-17T07:21:00.798Z,15.00
2022-10-17T07:23:27.695Z,15.10
2022-10-17T07:26:00.419Z,15.10
2022-10-17T07:28:28.306Z,15.10
2022-10-17T07:30:55.186Z,15.10
2022-10-17T07:33:21.816Z,15.10
2022-10-17T07:35:48.416Z,15.20
2022-10-17T07:38:14.994Z,15.30
2022-10-17T07:40:41.527Z,15.40
2022-10-17T07:43:08.065Z,15.60
2022-10-17T07:45:34.592Z,16.10
2022-10-17T07:48:01.137Z,16.40
2022-10-17T07:50:27.798Z,16.50
2022-10-17T07:52:54.335Z,16.40
2022-10-17T07:55:20.871Z,16.30
2022-10-17T07:57:47.508Z,16.30
2022-10-17T08:00:14.301Z,16.30
2022-10-17T08:02:40.962Z,16.30
2022-10-17T08:05:07.923Z,16.50
2022-10-17T08:07:34.535Z,16.60
2022-10-17T08:10:01.163Z,16.90
2022-10-17T08:12:32.523Z,17.00
2022-10-17T08:14:59.793Z,17.00
2022-10-17T08:17:26.946Z,17.00
2022-10-17T08:19:53.610Z,17.00
2022-10-17T08:22:20.262Z,17.00
2022-10-17T08:24:46.912Z,17.10
2022-10-17T08:27:13.715Z,17.20
2022-10-17T08:29:40.842Z,17.80
2022-10-17T08:32:10.021Z,18.70
2022-10-17T08:34:36.861Z,19.40
2022-10-17T08:37:03.637Z,20.10
